Dane County Regional Truax Field
KMSN : now visible

Airfield :











YOU CAN JOIN US ON...

 
LOGIN :

Register | Disclaimer

   EN    FR    IT 

 









Legend :    VFR   Marginal VFR   IFR   Intensive IFR   Very Intensive IFR
Visi :
Ceiling :
>= 8 km
>= 3000ft
5 to 8 km
1000 to 3000 ft
1500m to 5 km
500 to 1000 ft
800 to 1500m
200 to 500 ft
< 800m
< 200 ft
Symbols :   Thunderstorms  Fog  Heavy snow  Heavy precipitations  Wind > 20 kt






- Airport Elevation : 887 ft
- IATA code : MSN


KMSN - Dane County Regional Truax Field

CURRENT METAR :
  • 170453Z AUTO 19004KT 10SM CLR 24/19 A2985 RMK AO2 SLP101 T02440194

EXPIRED METARs :
  • 170353Z 21003KT 10SM SCT250 25/19 A2983 RMK AO2 SLP094 LAST T02500194
  • 170253Z 19005KT 10SM SCT250 25/19 A2981 RMK AO2 SLP089 T02500189 53010
  • 170153Z 19009KT 10SM BKN250 26/19 A2979 RMK AO2 SLP082 T02560189
  • 170053Z 20007KT 10SM BKN250 27/18 A2979 RMK AO2 SLP081 T02670183
  • 162353Z 20008KT 10SM BKN250 28/17 A2978 RMK AO2 SLP078 T02780172 10322 20278 53005

TAF KMSN
Valid from the 17 at 03:00 until the 18 at 00:00 UTC


170306Z 1703/1724 19005KT P6SM FEW050 WS020/23040KT
FM170900 20006KT P6SM FEW050
FM171600 21010G18KT P6SM SCT040
KZAU FIR / North America



MET'MAP, your aeronautical weather chart ! - Copyright ORBIFLY December 2007 - Disclaimer

ORBIFLY MET'MAP TEAM :

Programming & Development : Alexandra Zaïnal
Original concept : Baudouin d'Aumeries
Technical & hardware support : Manuel Goepfert
Assistance : Marc-Olivier Méhu




SOURCES & CREDITS :

   NOAA       Earth
Advisory